Time;durP1;ratioP1;P1;durP2;ratioP2;P2;SDS_P1;SDS_P2;PMS_P1;PMS_P2;Temp;Humidity;BMP_temperature;BMP_pressure;BME280_temperature;BME280_humidity;BME280_pressure;Samples;Min_cycle;Max_cycle;Signal;HPM_P1;HPM_P2
2023/06/01 00:00:29;;;;;;;;;;;;;;;16.84;39.54;102227.44;7354958;19;19978;-56
2023/06/01 00:02:55;;;;;;;;;;;;;;;16.80;39.21;102225.78;7352241;19;20569;-57
2023/06/01 00:05:20;;;;;;;;;;;;;;;16.75;39.62;102222.38;7354037;19;19926;-57
2023/06/01 00:07:45;;;;;;;;;;;;;;;16.71;39.65;102226.00;7354915;19;19951;-57
2023/06/01 00:10:11;;;;;;;;;;;;;;;16.66;39.50;102227.84;7351598;19;19930;-57
2023/06/01 00:12:36;;;;;;;;;;;;;;;16.62;39.76;102226.19;7357322;19;19986;-56
2023/06/01 00:15:01;;;;;;;;;;;;;;;16.59;40.07;102228.91;7355410;19;19927;-57
2023/06/01 00:17:28;;;;;;;;;;;;;;;16.56;39.72;102236.88;7353414;19;19994;-57
2023/06/01 00:19:54;;;;;;;;;;;;;;;16.52;40.10;102229.94;7354980;19;19981;-57
2023/06/01 00:22:19;;;;;;;;;;;;;;;16.50;40.00;102237.03;7356379;19;19983;-57
2023/06/01 00:24:45;;;;;;;;;;;;;;;16.47;39.88;102237.09;7353433;19;19919;-57
2023/06/01 00:27:10;;;;;;;;;;;;;;;16.44;40.34;102231.91;7354606;19;20622;-57
2023/06/01 00:29:35;;;;;;;;;;;;;;;16.41;40.15;102231.94;7353161;19;20530;-57
2023/06/01 00:32:01;;;;;;;;;;;;;;;16.37;40.42;102230.28;7356190;19;19947;-57
2023/06/01 00:34:26;;;;;;;;;;;;;;;16.31;40.05;102224.25;7352880;19;19918;-57
2023/06/01 00:36:51;;;;;;;;;;;;;;;16.28;40.36;102228.75;7353188;19;19919;-57
2023/06/01 00:39:17;;;;;;;;;;;;;;;16.24;40.50;102227.94;7354829;19;19922;-57
2023/06/01 00:41:42;;;;;;;;;;;;;;;16.20;40.54;102228.03;7352681;19;19930;-57
2023/06/01 00:44:07;;;;;;;;;;;;;;;16.17;40.39;102223.72;7355191;19;19915;-56
2023/06/01 00:46:34;;;;;;;;;;;;;;;16.14;40.60;102220.25;7355551;19;20352;-57
2023/06/01 00:48:59;;;;;;;;;;;;;;;16.10;39.83;102222.09;7353947;19;19938;-56
2023/06/01 00:51:25;;;;;;;;;;;;;;;16.06;40.25;102233.59;7353154;19;20341;-57
2023/06/01 00:53:50;;;;;;;;;;;;;;;16.01;40.58;102230.19;7350417;19;19935;-57
2023/06/01 00:56:17;;;;;;;;;;;;;;;15.96;40.20;102229.41;7351216;19;19919;-57
2023/06/01 00:58:43;;;;;;;;;;;;;;;15.93;40.48;102224.22;7353882;19;19991;-57
2023/06/01 01:01:18;;;;;;;;;;;;;;;15.87;40.77;102224.34;7353306;19;19929;-56
2023/06/01 01:03:46;;;;;;;;;;;;;;;15.84;40.82;102230.53;7349309;19;19936;-57
2023/06/01 01:06:17;;;;;;;;;;;;;;;15.80;40.57;102226.22;7354259;19;20019;-56
2023/06/01 01:08:49;;;;;;;;;;;;;;;15.76;40.58;102217.53;7353794;19;19923;-57
2023/06/01 01:11:20;;;;;;;;;;;;;;;15.72;40.60;102221.13;7352656;19;19952;-57
2023/06/01 01:14:04;;;;;;;;;;;;;;;15.68;40.91;102219.44;7348278;19;19943;-57
2023/06/01 01:16:31;;;;;;;;;;;;;;;15.65;40.99;102214.22;7353412;19;19926;-57
2023/06/01 01:18:57;;;;;;;;;;;;;;;15.60;40.89;102217.81;7353500;19;19931;-57
2023/06/01 01:21:29;;;;;;;;;;;;;;;15.56;40.95;102211.72;7350739;19;20992;-56
2023/06/01 01:24:07;;;;;;;;;;;;;;;15.51;40.76;102210.94;7350354;19;19924;-57
2023/06/01 01:26:41;;;;;;;;;;;;;;;15.47;41.06;102212.78;7352257;19;19924;-56
2023/06/01 01:29:09;;;;;;;;;;;;;;;15.42;41.16;102206.75;7353329;19;20623;-57
2023/06/01 01:31:34;;;;;;;;;;;;;;;15.38;41.30;102206.81;7352151;19;19927;-56
2023/06/01 01:34:01;;;;;;;;;;;;;;;15.34;41.01;102211.28;7349495;19;19930;-57
2023/06/01 01:36:27;;;;;;;;;;;;;;;15.31;41.14;102203.44;7353273;19;20356;-56
2023/06/01 01:38:52;;;;;;;;;;;;;;;15.27;41.17;102202.63;7353303;19;19986;-57
2023/06/01 01:41:19;;;;;;;;;;;;;;;14.98;41.12;102161.03;7352399;19;20649;-57
2023/06/01 01:43:44;;;;;;;;;;;;;;;15.21;41.34;102196.63;7353002;19;20557;-57
2023/06/01 01:46:15;;;;;;;;;;;;;;;15.19;40.86;102196.63;7349689;19;19946;-57
2023/06/01 01:48:48;;;;;;;;;;;;;;;15.15;41.18;102194.94;7349314;19;19914;-57
2023/06/01 01:51:19;;;;;;;;;;;;;;;15.14;40.42;102189.72;7352486;19;19918;-57
2023/06/01 01:53:45;;;;;;;;;;;;;;;15.09;41.06;102187.16;7359346;19;19922;-57
2023/06/01 01:56:13;;;;;;;;;;;;;;;15.05;40.99;102185.47;7358926;19;19943;-57
2023/06/01 01:58:39;;;;;;;;;;;;;;;14.76;41.16;102147.41;7346892;19;19926;-57
2023/06/01 02:01:05;;;;;;;;;;;;;;;14.97;41.23;102182.13;7358894;19;20674;-57
2023/06/01 02:03:30;;;;;;;;;;;;;;;14.94;41.61;102174.28;7352753;19;19955;-56
2023/06/01 02:05:55;;;;;;;;;;;;;;;14.91;41.54;102175.22;7357231;19;19939;-57
2023/06/01 02:08:20;;;;;;;;;;;;;;;14.87;41.46;102175.28;7359702;19;20342;-56
2023/06/01 02:10:46;;;;;;;;;;;;;;;14.84;41.42;102168.31;7350945;19;20352;-57
2023/06/01 02:13:11;;;;;;;;;;;;;;;14.81;41.51;102172.78;7357639;19;19926;-57
2023/06/01 02:15:36;;;;;;;;;;;;;;;14.78;41.76;102177.16;7360376;19;19942;-57
2023/06/01 02:18:02;;;;;;;;;;;;;;;14.75;41.42;102166.72;7358137;19;19982;-56
2023/06/01 02:20:27;;;;;;;;;;;;;;;14.73;41.73;102163.22;7358404;19;19930;-57
2023/06/01 02:22:53;;;;;;;;;;;;;;;14.70;41.98;102167.66;7353522;19;19936;-57
2023/06/01 02:25:19;;;;;;;;;;;;;;;14.66;41.71;102166.88;7362123;19;20503;-57
2023/06/01 02:27:44;;;;;;;;;;;;;;;14.64;41.88;102168.63;7354537;19;19938;-57
2023/06/01 02:30:10;;;;;;;;;;;;;;;14.61;42.12;102168.69;7360413;19;19926;-57
2023/06/01 02:32:37;;;;;;;;;;;;;;;14.53;42.03;102160.06;7359377;19;19931;-58
2023/06/01 02:35:02;;;;;;;;;;;;;;;14.54;42.03;102167.91;7358486;19;20767;-57
2023/06/01 02:37:28;;;;;;;;;;;;;;;14.50;41.94;102166.25;7356597;19;19971;-57
2023/06/01 02:39:53;;;;;;;;;;;;;;;14.48;42.14;102167.13;7358012;19;19933;-56
2023/06/01 02:42:18;;;;;;;;;;;;;;;14.45;42.42;102164.53;7356300;19;19919;-56
2023/06/01 02:44:43;;;;;;;;;;;;;;;14.44;41.94;102170.66;7357342;19;19925;-57
2023/06/01 02:47:09;;;;;;;;;;;;;;;14.41;42.32;102165.47;7353827;19;20363;-57
2023/06/01 02:49:35;;;;;;;;;;;;;;;14.38;42.46;102165.50;7357138;19;19926;-57
2023/06/01 02:52:00;;;;;;;;;;;;;;;13.99;42.41;102112.69;7351944;19;19923;-56
2023/06/01 02:54:25;;;;;;;;;;;;;;;14.33;42.10;102162.94;7356083;19;19926;-57
2023/06/01 02:56:51;;;;;;;;;;;;;;;14.32;42.11;102168.25;7357620;19;19919;-57
2023/06/01 02:59:16;;;;;;;;;;;;;;;14.30;42.10;102162.16;7356932;19;20370;-56
2023/06/01 03:01:41;;;;;;;;;;;;;;;14.27;42.50;102153.41;7336275;19;20175;-57
2023/06/01 03:04:07;;;;;;;;;;;;;;;14.25;42.59;102144.69;7355838;19;20291;-57
2023/06/01 03:06:33;;;;;;;;;;;;;;;14.24;42.33;102142.97;7356561;19;19923;-57
2023/06/01 03:08:58;;;;;;;;;;;;;;;14.21;42.31;102148.25;7362800;19;19961;-57
2023/06/01 03:11:24;;;;;;;;;;;;;;;14.17;42.80;102143.91;7356148;19;19934;-57
2023/06/01 03:13:50;;;;;;;;;;;;;;;14.16;42.68;102149.22;7359698;19;19927;-57
2023/06/01 03:16:16;;;;;;;;;;;;;;;14.14;42.57;102151.88;7356263;19;19961;-57
2023/06/01 03:18:41;;;;;;;;;;;;;;;14.12;42.28;102148.38;7338681;19;19915;-57
2023/06/01 03:21:06;;;;;;;;;;;;;;;14.09;42.48;102147.53;7359436;19;19943;-56
2023/06/01 03:23:32;;;;;;;;;;;;;;;14.08;42.40;102148.44;7360208;19;19918;-57
2023/06/01 03:25:57;;;;;;;;;;;;;;;14.06;42.24;102151.09;7359378;19;19907;-57
2023/06/01 03:28:22;;;;;;;;;;;;;;;14.04;42.34;102155.50;7357073;19;19918;-57
2023/06/01 03:30:48;;;;;;;;;;;;;;;14.02;42.29;102157.28;7357416;19;19936;-57
2023/06/01 03:33:13;;;;;;;;;;;;;;;14.00;41.85;102159.94;7361327;19;19915;-56
2023/06/01 03:35:38;;;;;;;;;;;;;;;13.98;42.11;102169.56;7358517;19;19915;-58
2023/06/01 03:38:03;;;;;;;;;;;;;;;13.96;42.56;102162.59;7359605;19;20286;-57
2023/06/01 03:40:29;;;;;;;;;;;;;;;13.95;42.87;102161.75;7359833;19;19935;-57
2023/06/01 03:42:54;;;;;;;;;;;;;;;13.92;42.81;102151.28;7356870;19;19959;-57
2023/06/01 03:45:19;;;;;;;;;;;;;;;13.92;43.00;102150.41;7360461;19;20928;-57
2023/06/01 03:47:45;;;;;;;;;;;;;;;13.89;42.83;102147.81;7360087;19;20409;-56
2023/06/01 03:50:10;;;;;;;;;;;;;;;13.88;43.11;102159.19;7357452;19;20510;-56
2023/06/01 03:52:36;;;;;;;;;;;;;;;13.86;43.40;102153.13;7355871;19;19918;-57
2023/06/01 03:55:02;;;;;;;;;;;;;;;13.84;43.29;102158.41;7361004;19;19929;-56
2023/06/01 03:57:28;;;;;;;;;;;;;;;13.82;43.24;102156.66;7356546;19;20554;-57
2023/06/01 03:59:53;;;;;;;;;;;;;;;13.81;43.45;102158.44;7358321;19;19943;-56
2023/06/01 04:02:19;;;;;;;;;;;;;;;13.80;43.19;102155.81;7353813;19;19923;-57
2023/06/01 04:04:45;;;;;;;;;;;;;;;13.79;43.61;102146.19;7358245;19;19926;-57
2023/06/01 04:07:14;;;;;;;;;;;;;;;13.76;43.11;102145.34;7358895;19;19946;-57
2023/06/01 04:09:40;;;;;;;;;;;;;;;13.75;43.68;102143.63;7357416;19;20806;-57
2023/06/01 04:12:05;;;;;;;;;;;;;;;13.72;43.46;102141.03;7353850;19;19919;-56
2023/06/01 04:14:31;;;;;;;;;;;;;;;13.70;43.53;102140.19;7354078;19;21088;-56
2023/06/01 04:16:56;;;;;;;;;;;;;;;13.69;43.62;102143.72;7359241;19;19927;-57
2023/06/01 04:19:21;;;;;;;;;;;;;;;13.67;43.75;102140.22;7357848;19;19954;-56
2023/06/01 04:21:46;;;;;;;;;;;;;;;13.32;43.70;102079.41;7356738;19;20554;-56
2023/06/01 04:24:12;;;;;;;;;;;;;;;13.66;43.37;102137.63;7353556;19;19915;-57
2023/06/01 04:26:37;;;;;;;;;;;;;;;13.63;43.54;102138.50;7358709;19;19925;-56
2023/06/01 04:29:02;;;;;;;;;;;;;;;13.63;43.37;102141.13;7356754;19;20362;-56
2023/06/01 04:31:28;;;;;;;;;;;;;;;13.63;43.66;102142.91;7356645;19;19948;-57
2023/06/01 04:33:53;;;;;;;;;;;;;;;13.62;43.39;102136.78;7358013;19;19974;-57
2023/06/01 04:36:25;;;;;;;;;;;;;;;13.62;43.51;102142.03;7357296;19;19935;-57
2023/06/01 04:38:54;;;;;;;;;;;;;;;13.63;43.45;102148.13;7356483;19;20336;-56
2023/06/01 04:41:23;;;;;;;;;;;;;;;13.64;43.80;102156.03;7353198;19;20010;-57
2023/06/01 04:43:52;;;;;;;;;;;;;;;13.64;43.67;102144.66;7357809;19;19945;-56
2023/06/01 04:46:19;;;;;;;;;;;;;;;13.65;43.77;102157.75;7356704;19;20392;-57
2023/06/01 04:48:44;;;;;;;;;;;;;;;13.67;43.73;102149.84;7357536;19;19918;-57
2023/06/01 04:51:10;;;;;;;;;;;;;;;13.66;43.66;102148.13;7355644;19;19933;-57
2023/06/01 04:53:35;;;;;;;;;;;;;;;13.67;43.92;102148.09;7359571;19;19923;-56
2023/06/01 04:56:00;;;;;;;;;;;;;;;13.69;43.98;102154.22;7354435;19;20862;-56
2023/06/01 04:58:26;;;;;;;;;;;;;;;13.72;43.73;102153.28;7358408;19;19926;-57
2023/06/01 05:00:52;;;;;;;;;;;;;;;13.72;44.15;102158.53;7353123;19;19919;-57
2023/06/01 05:03:17;;;;;;;;;;;;;;;13.75;43.79;102158.50;7357652;19;20290;-56
2023/06/01 05:05:43;;;;;;;;;;;;;;;13.77;43.75;102164.59;7355323;19;19926;-57
2023/06/01 05:08:09;;;;;;;;;;;;;;;13.79;43.69;102154.06;7354311;19;20002;-57
2023/06/01 05:10:34;;;;;;;;;;;;;;;13.81;43.78;102153.19;7356011;19;19998;-56
2023/06/01 05:12:59;;;;;;;;;;;;;;;13.84;43.82;102160.13;7356888;19;20297;-57
2023/06/01 05:15:27;;;;;;;;;;;;;;;13.85;43.83;102154.88;7354606;19;19935;-56
2023/06/01 05:17:52;;;;;;;;;;;;;;;13.89;43.95;102155.69;7356390;19;19915;-57
2023/06/01 05:20:17;;;;;;;;;;;;;;;13.90;43.78;102163.56;7353738;19;19929;-57
2023/06/01 05:22:42;;;;;;;;;;;;;;;13.93;43.84;102165.25;7356658;19;19999;-57
2023/06/01 05:25:08;;;;;;;;;;;;;;;13.59;43.83;102100.09;7351394;19;19915;-57
2023/06/01 05:27:34;;;;;;;;;;;;;;;13.98;43.73;102166.06;7361735;19;19947;-57
2023/06/01 05:30:00;;;;;;;;;;;;;;;14.00;44.20;102169.56;7354282;19;20332;-56
2023/06/01 05:32:25;;;;;;;;;;;;;;;14.02;44.08;102158.13;7361642;19;19930;-57
2023/06/01 05:34:51;;;;;;;;;;;;;;;14.06;43.84;102163.34;7363199;19;19915;-57
2023/06/01 05:37:16;;;;;;;;;;;;;;;14.07;43.79;102165.94;7363614;19;19958;-57
2023/06/01 05:39:41;;;;;;;;;;;;;;;14.11;44.10;102165.03;7358909;19;19911;-57
2023/06/01 05:42:06;;;;;;;;;;;;;;;14.15;43.99;102163.22;7364149;19;19930;-57
2023/06/01 05:44:32;;;;;;;;;;;;;;;14.18;43.85;102164.03;7359970;19;19943;-57
2023/06/01 05:46:57;;;;;;;;;;;;;;;14.21;43.98;102166.63;7364138;19;20749;-57
2023/06/01 05:49:22;;;;;;;;;;;;;;;14.24;43.89;102163.06;7360019;19;19915;-57
2023/06/01 05:51:48;;;;;;;;;;;;;;;14.28;43.69;102170.03;7359735;19;20252;-57
2023/06/01 05:54:13;;;;;;;;;;;;;;;14.32;43.72;102171.72;7360449;19;19919;-56
2023/06/01 05:56:40;;;;;;;;;;;;;;;14.35;43.92;102176.09;7363478;19;19922;-57
2023/06/01 05:59:06;;;;;;;;;;;;;;;14.37;44.01;102177.78;7346327;19;19986;-56
2023/06/01 06:01:31;;;;;;;;;;;;;;;14.42;43.93;102182.97;7359091;19;19948;-57
2023/06/01 06:03:57;;;;;;;;;;;;;;;14.44;43.79;102179.41;7358681;19;20487;-56
2023/06/01 06:06:22;;;;;;;;;;;;;;;14.48;43.96;102178.53;7357445;19;19919;-56
2023/06/01 06:08:48;;;;;;;;;;;;;;;14.51;43.62;102178.50;7357839;19;21004;-57
2023/06/01 06:11:13;;;;;;;;;;;;;;;14.56;43.65;102183.69;7356552;19;19930;-56
2023/06/01 06:13:39;;;;;;;;;;;;;;;14.58;43.88;102183.66;7360590;19;20002;-56
2023/06/01 06:16:04;;;;;;;;;;;;;;;14.62;43.75;102186.19;7357594;19;19922;-56
2023/06/01 06:18:29;;;;;;;;;;;;;;;14.65;44.01;102186.16;7357659;19;20293;-57
2023/06/01 06:20:54;;;;;;;;;;;;;;;14.70;43.88;102184.34;7356612;19;19918;-57
2023/06/01 06:23:20;;;;;;;;;;;;;;;14.76;44.07;102186.84;7357924;19;19935;-57
2023/06/01 06:25:46;;;;;;;;;;;;;;;14.83;43.86;102184.13;7354509;19;19923;-57
2023/06/01 06:28:11;;;;;;;;;;;;;;;14.90;44.22;102193.63;7357700;19;19933;-57
2023/06/01 06:30:37;;;;;;;;;;;;;;;14.98;43.85;102194.38;7355136;19;19921;-57
2023/06/01 06:33:02;;;;;;;;;;;;;;;15.07;44.00;102194.22;7356141;19;19939;-57
2023/06/01 06:35:27;;;;;;;;;;;;;;;15.15;43.88;102192.31;7342978;19;19932;-57
2023/06/01 06:37:53;;;;;;;;;;;;;;;15.23;44.11;102190.41;7344203;19;19955;-57
2023/06/01 06:40:18;;;;;;;;;;;;;;;15.35;44.03;102183.19;7353129;19;19959;-57
2023/06/01 06:42:43;;;;;;;;;;;;;;;15.44;44.37;102188.28;7355132;19;19918;-57
2023/06/01 06:45:09;;;;;;;;;;;;;;;15.53;44.52;102182.84;7358084;19;19915;-57
2023/06/01 06:47:34;;;;;;;;;;;;;;;15.62;44.34;102180.03;7356679;19;20674;-57
2023/06/01 06:50:00;;;;;;;;;;;;;;;15.72;44.31;102189.50;7359105;19;19907;-57
2023/06/01 06:52:25;;;;;;;;;;;;;;;15.79;44.06;102191.13;7358127;19;19918;-56
2023/06/01 06:54:50;;;;;;;;;;;;;;;15.88;44.32;102183.94;7341616;19;19918;-56
2023/06/01 06:57:15;;;;;;;;;;;;;;;15.96;44.38;102187.25;7346689;19;19986;-57
2023/06/01 06:59:41;;;;;;;;;;;;;;;16.05;44.39;102187.06;7355501;19;19919;-57
2023/06/01 07:02:06;;;;;;;;;;;;;;;16.12;43.98;102188.69;7350106;19;25593;-57
2023/06/01 07:04:31;;;;;;;;;;;;;;;16.20;44.53;102192.00;7353408;19;19931;-57
2023/06/01 07:06:56;;;;;;;;;;;;;;;16.26;44.87;102186.56;7358974;19;19926;-57
2023/06/01 07:09:22;;;;;;;;;;;;;;;16.35;44.31;102196.91;7356219;19;20667;-56
2023/06/01 07:11:50;;;;;;;;;;;;;;;16.42;44.31;102204.69;7358200;19;19939;-57
2023/06/01 07:14:15;;;;;;;;;;;;;;;16.49;44.73;102204.53;7357239;19;19926;-57
2023/06/01 07:16:40;;;;;;;;;;;;;;;16.58;44.52;102204.31;7358288;19;19926;-57
2023/06/01 07:19:06;;;;;;;;;;;;;;;16.66;44.86;102206.75;7359240;19;19978;-57
2023/06/01 07:21:32;;;;;;;;;;;;;;;16.74;45.03;102207.47;7361094;19;19926;-57
2023/06/01 07:23:57;;;;;;;;;;;;;;;16.83;45.24;102194.06;7359535;19;19919;-57
2023/06/01 07:26:25;;;;;;;;;;;;;;;16.92;45.38;102197.34;7358742;19;19921;-57
2023/06/01 07:28:52;;;;;;;;;;;;;;;17.00;45.01;102196.25;7359159;19;20351;-57
2023/06/01 07:31:18;;;;;;;;;;;;;;;17.09;45.41;102187.25;7357327;19;19932;-57
2023/06/01 07:33:43;;;;;;;;;;;;;;;17.18;44.98;102189.63;7361310;19;20443;-57
2023/06/01 07:36:09;;;;;;;;;;;;;;;17.27;44.79;102199.94;7347974;19;19931;-57
2023/06/01 07:38:34;;;;;;;;;;;;;;;17.36;45.00;102189.13;7347600;19;20271;-57
2023/06/01 07:40:59;;;;;;;;;;;;;;;17.46;45.24;102188.91;7358624;19;20313;-57
2023/06/01 07:43:25;;;;;;;;;;;;;;;17.53;45.09;102195.72;7358084;19;19918;-57
2023/06/01 07:45:50;;;;;;;;;;;;;;;17.59;45.30;102190.31;7358400;19;19923;-57
2023/06/01 07:48:16;;;;;;;;;;;;;;;17.67;45.43;102190.94;7358887;19;19992;-57
2023/06/01 07:50:41;;;;;;;;;;;;;;;17.73;45.29;102195.19;7360294;19;20362;-58
2023/06/01 07:53:07;;;;;;;;;;;;;;;17.77;44.65;102195.06;7359127;19;19915;-57
2023/06/01 07:55:32;;;;;;;;;;;;;;;17.81;44.16;102196.72;7360700;19;20692;-57
2023/06/01 07:57:58;;;;;;;;;;;;;;;17.84;44.54;102196.66;7359615;19;19923;-57
2023/06/01 08:00:23;;;;;;;;;;;;;;;17.87;43.85;102206.25;7360260;19;19923;-57
2023/06/01 08:02:48;;;;;;;;;;;;;;;17.88;44.04;102200.03;7357714;19;19930;-57
2023/06/01 08:05:18;;;;;;;;;;;;;;;17.88;44.53;102198.25;7359228;19;20010;-57
2023/06/01 08:07:44;;;;;;;;;;;;;;;17.56;44.39;102148.09;7357921;19;19934;-57
2023/06/01 08:10:09;;;;;;;;;;;;;;;17.92;44.13;102198.19;7357621;19;19926;-57
2023/06/01 08:12:35;;;;;;;;;;;;;;;17.93;44.61;102199.91;7359133;19;20418;-57
2023/06/01 08:15:01;;;;;;;;;;;;;;;17.95;44.66;102198.97;7358231;19;19942;-57
2023/06/01 08:17:26;;;;;;;;;;;;;;;17.98;44.59;102192.72;7358689;19;19926;-57
2023/06/01 08:19:52;;;;;;;;;;;;;;;18.01;45.02;102198.78;7359110;19;19938;-57
2023/06/01 08:22:20;;;;;;;;;;;;;;;18.06;44.64;102206.56;7358176;19;19923;-57
2023/06/01 08:24:45;;;;;;;;;;;;;;;18.11;44.54;102209.94;7357783;19;20369;-57
2023/06/01 08:27:17;;;;;;;;;;;;;;;18.15;44.04;102206.31;7354762;19;19918;-57
2023/06/01 08:29:44;;;;;;;;;;;;;;;18.20;44.39;102209.69;7357594;19;19915;-57
2023/06/01 08:32:09;;;;;;;;;;;;;;;18.24;44.66;102200.72;7356518;19;19934;-57
2023/06/01 08:34:35;;;;;;;;;;;;;;;18.30;44.81;102205.84;7353436;19;19926;-57
2023/06/01 08:37:00;;;;;;;;;;;;;;;18.35;44.06;102209.19;7357030;19;19946;-57
2023/06/01 08:39:25;;;;;;;;;;;;;;;18.41;44.68;102206.34;7357958;19;19925;-57
2023/06/01 08:41:59;;;;;;;;;;;;;;;18.49;44.42;102215.81;7357198;19;19918;-57
2023/06/01 08:44:26;;;;;;;;;;;;;;;18.54;44.68;102211.25;7357835;19;19965;-57
2023/06/01 08:46:52;;;;;;;;;;;;;;;18.61;44.37;102210.16;7356420;19;19938;-57
2023/06/01 08:49:19;;;;;;;;;;;;;;;18.69;44.13;102213.44;7358126;19;19927;-57
2023/06/01 08:51:46;;;;;;;;;;;;;;;18.76;44.95;102207.03;7355700;19;19930;-57
2023/06/01 08:54:12;;;;;;;;;;;;;;;18.85;45.00;102209.34;7355636;19;20602;-57
2023/06/01 08:56:42;;;;;;;;;;;;;;;18.93;44.60;102212.63;7356163;19;19926;-57
2023/06/01 08:59:07;;;;;;;;;;;;;;;19.05;44.79;102207.84;7355868;19;19941;-57
2023/06/01 09:01:33;;;;;;;;;;;;;;;19.15;44.31;102206.59;7354905;19;20654;-57
2023/06/01 09:03:58;;;;;;;;;;;;;;;19.26;44.61;102204.47;7352946;19;19926;-56
2023/06/01 09:06:23;;;;;;;;;;;;;;;19.38;44.45;102209.31;7356423;19;19971;-57
2023/06/01 09:08:49;;;;;;;;;;;;;;;19.50;43.79;102207.16;7356667;19;22254;-57
2023/06/01 09:11:15;;;;;;;;;;;;;;;19.59;44.43;102193.56;7357267;19;19944;-58
2023/06/01 09:13:41;;;;;;;;;;;;;;;19.68;44.46;102199.44;7357802;19;20450;-57
2023/06/01 09:16:06;;;;;;;;;;;;;;;19.76;44.13;102204.44;7355613;19;19918;-57
2023/06/01 09:18:32;;;;;;;;;;;;;;;19.84;43.95;102202.38;7339950;19;19935;-57
2023/06/01 09:21:13;;;;;;;;;;;;;;;19.91;44.00;102203.84;7352273;19;19951;-57
2023/06/01 09:23:38;;;;;;;;;;;;;;;20.00;44.07;102204.44;7354380;19;19918;-57
2023/06/01 09:26:14;;;;;;;;;;;;;;;20.09;43.93;102201.44;7357716;19;19919;-57
2023/06/01 09:28:55;;;;;;;;;;;;;;;20.25;43.50;102210.53;7356220;19;19997;-58
2023/06/01 09:31:37;;;;;;;;;;;;;;;20.46;44.25;102207.06;7356050;19;20256;-58
2023/06/01 09:34:02;;;;;;;;;;;;;;;20.70;43.71;102199.03;7355109;19;20344;-57
2023/06/01 09:36:28;;;;;;;;;;;;;;;20.88;42.93;102198.28;7356783;19;19917;-57
2023/06/01 09:39:00;;;;;;;;;;;;;;;21.04;43.61;102198.47;7352262;19;19953;-57
2023/06/01 09:41:26;;;;;;;;;;;;;;;21.16;43.17;102197.94;7354345;19;20191;-58
2023/06/01 09:43:51;;;;;;;;;;;;;;;21.25;43.15;102207.31;7358899;19;19911;-57
2023/06/01 09:46:17;;;;;;;;;;;;;;;21.34;43.25;102206.97;7349224;19;20028;-57
2023/06/01 09:48:44;;;;;;;;;;;;;;;21.42;43.38;102191.50;7356970;19;19918;-57
2023/06/01 09:51:34;;;;;;;;;;;;;;;21.50;42.96;102192.03;7352223;19;19939;-58
2023/06/01 09:54:00;;;;;;;;;;;;;;;21.63;43.07;102200.31;7354736;19;19916;-57
2023/06/01 09:56:26;;;;;;;;;;;;;;;21.74;43.30;102192.72;7355173;19;19929;-57
2023/06/01 09:58:58;;;;;;;;;;;;;;;21.92;42.86;102187.50;7354426;19;19935;-58
2023/06/01 10:01:23;;;;;;;;;;;;;;;22.17;43.05;102192.56;7352286;19;20439;-58
2023/06/01 10:03:53;;;;;;;;;;;;;;;22.43;42.84;102194.81;7355264;19;19941;-58
2023/06/01 10:06:18;;;;;;;;;;;;;;;22.73;42.87;102196.91;7355861;19;19943;-57
2023/06/01 10:08:44;;;;;;;;;;;;;;;23.03;43.29;102200.72;7351245;19;19919;-57
2023/06/01 10:11:09;;;;;;;;;;;;;;;23.32;42.74;102201.03;7352877;19;19926;-58
2023/06/01 10:13:35;;;;;;;;;;;;;;;23.56;42.43;102199.69;7359344;19;20006;-57
2023/06/01 10:16:00;;;;;;;;;;;;;;;23.79;42.25;102200.31;7360736;19;19922;-57
2023/06/01 10:18:26;;;;;;;;;;;;;;;23.98;42.17;102211.72;7361924;19;19918;-58
2023/06/01 10:20:51;;;;;;;;;;;;;;;24.14;41.87;102200.19;7357693;19;19931;-57
2023/06/01 10:23:17;;;;;;;;;;;;;;;24.33;41.72;102206.19;7359675;19;20621;-57
2023/06/01 10:25:47;;;;;;;;;;;;;;;24.53;41.48;102205.97;7360468;19;19949;-57
2023/06/01 10:28:15;;;;;;;;;;;;;;;24.72;41.13;102208.41;7359367;19;20004;-57
2023/06/01 10:30:40;;;;;;;;;;;;;;;24.66;40.76;102165.16;7359248;19;19947;-57
2023/06/01 10:33:05;;;;;;;;;;;;;;;25.02;40.50;102200.38;7358907;19;19991;-58
2023/06/01 10:35:32;;;;;;;;;;;;;;;25.18;40.30;102199.50;7358936;19;19910;-57
2023/06/01 10:38:06;;;;;;;;;;;;;;;25.32;40.27;102208.41;7358961;19;19987;-57
2023/06/01 10:40:32;;;;;;;;;;;;;;;25.55;40.29;102204.34;7357402;19;19919;-57
2023/06/01 10:42:58;;;;;;;;;;;;;;;25.77;40.23;102198.53;7356841;19;19939;-58
2023/06/01 10:45:37;;;;;;;;;;;;;;;26.00;40.47;102210.44;7359136;19;19934;-60
2023/06/01 10:48:03;;;;;;;;;;;;;;;26.30;40.22;102210.28;7362430;19;19914;-60
2023/06/01 10:50:28;;;;;;;;;;;;;;;26.53;39.79;102203.44;7360560;19;19911;-61
2023/06/01 10:52:54;;;;;;;;;;;;;;;26.75;39.53;102207.38;7358256;19;19911;-60
2023/06/01 10:55:24;;;;;;;;;;;;;;;26.94;39.13;102207.84;7361191;19;20009;-60
2023/06/01 10:57:50;;;;;;;;;;;;;;;27.14;39.12;102210.06;7361215;19;20366;-60
2023/06/01 11:00:16;;;;;;;;;;;;;;;27.35;39.30;102204.16;7361813;19;20729;-60
2023/06/01 11:02:45;;;;;;;;;;;;;;;27.56;38.78;102199.97;7360550;19;19926;-60
2023/06/01 11:05:29;;;;;;;;;;;;;;;27.74;38.56;102191.63;7358053;19;20641;-60
2023/06/01 11:07:55;;;;;;;;;;;;;;;27.98;38.44;102199.72;7362307;19;19918;-59
2023/06/01 11:10:45;;;;;;;;;;;;;;;28.14;37.73;102201.19;7360020;19;20032;-57
2023/06/01 11:13:21;;;;;;;;;;;;;;;28.32;37.86;102198.97;7360605;19;20333;-60
2023/06/01 11:16:14;;;;;;;;;;;;;;;28.51;37.42;102195.78;7362005;19;20642;-60
2023/06/01 11:18:39;;;;;;;;;;;;;;;28.67;37.54;102204.41;7255705;19;2004541;-60
2023/06/01 11:21:06;;;;;;;;;;;;;;;28.80;37.19;102198.13;7361268;19;19923;-60
2023/06/01 11:23:31;;;;;;;;;;;;;;;28.90;36.78;102199.13;7357012;19;19922;-60
2023/06/01 11:25:57;;;;;;;;;;;;;;;28.96;37.19;102201.38;7357966;19;20336;-61
2023/06/01 11:28:23;;;;;;;;;;;;;;;29.04;36.53;102195.41;7360313;19;19926;-60
2023/06/01 11:30:48;;;;;;;;;;;;;;;29.15;36.87;102199.00;7361602;19;20257;-60
2023/06/01 11:33:13;;;;;;;;;;;;;;;29.34;36.70;102197.53;7359487;19;19926;-60
2023/06/01 11:35:39;;;;;;;;;;;;;;;29.52;36.38;102198.78;7362769;19;20332;-60
2023/06/01 11:38:04;;;;;;;;;;;;;;;29.66;35.95;102198.56;7359262;19;20245;-61
2023/06/01 11:40:29;;;;;;;;;;;;;;;29.84;35.77;102196.22;7360817;19;19957;-60
2023/06/01 11:42:55;;;;;;;;;;;;;;;29.97;35.60;102198.78;7359075;19;19935;-60
2023/06/01 11:45:20;;;;;;;;;;;;;;;30.07;35.40;102191.66;7360806;19;19943;-60
2023/06/01 11:47:46;;;;;;;;;;;;;;;30.19;35.46;102196.06;7358041;19;19915;-60
2023/06/01 11:50:21;;;;;;;;;;;;;;;30.30;35.51;102203.25;7358996;19;20025;-60
2023/06/01 11:52:47;;;;;;;;;;;;;;;30.44;35.34;102204.81;7360166;19;20009;-60
2023/06/01 11:55:13;;;;;;;;;;;;;;;30.40;34.99;102168.31;7359300;19;19946;-60
2023/06/01 11:57:42;;;;;;;;;;;;;;;30.83;35.47;102202.50;7360885;19;19933;-60
2023/06/01 12:00:12;;;;;;;;;;;;;;;31.01;35.35;102201.75;7358587;19;20577;-60
2023/06/01 12:02:38;;;;;;;;;;;;;;;31.16;34.74;102196.03;7357938;19;19938;-59
2023/06/01 12:05:10;;;;;;;;;;;;;;;31.25;34.41;102195.25;7359747;19;19939;-61
2023/06/01 12:07:50;;;;;;;;;;;;;;;31.30;33.46;102193.03;7359000;19;20354;-60
2023/06/01 12:10:18;;;;;;;;;;;;;;;31.37;34.04;102194.19;7357752;19;19935;-60
2023/06/01 12:12:44;;;;;;;;;;;;;;;31.54;34.01;102194.56;7359090;19;19927;-59
2023/06/01 12:15:10;;;;;;;;;;;;;;;31.70;34.00;102186.81;7358488;19;19918;-60
2023/06/01 12:17:52;;;;;;;;;;;;;;;31.90;33.99;102196.72;7360508;19;19919;-60
2023/06/01 12:20:37;;;;;;;;;;;;;;;32.11;33.64;102204.72;7356532;19;19934;-60
2023/06/01 12:23:13;;;;;;;;;;;;;;;32.36;33.82;102202.53;7359196;19;19927;-60
2023/06/01 12:25:52;;;;;;;;;;;;;;;32.59;32.99;102209.34;7357394;19;19923;-60
2023/06/01 12:28:17;;;;;;;;;;;;;;;32.78;32.72;102209.34;7358659;19;19926;-60
2023/06/01 12:30:43;;;;;;;;;;;;;;;32.93;32.87;102206.25;7357476;19;19923;-60
2023/06/01 12:33:09;;;;;;;;;;;;;;;33.05;32.59;102218.59;7358296;19;19919;-60